Time;durP1;ratioP1;P1;durP2;ratioP2;P2;SDS_P1;SDS_P2;PMS_P1;PMS_P2;Temp;Humidity;BMP_temperature;BMP_pressure;BME280_temperature;BME280_humidity;BME280_pressure;Samples;Min_cycle;Max_cycle;Signal;HPM_P1;HPM_P2
2022/06/19 00:01:58;;;;;;;9.25;6.10;;;20.20;99.90;;;20.99;70.69;97464.41;5180490;28;20952;-59
2022/06/19 00:04:33;;;;;;;11.25;6.45;;;20.10;99.90;;;20.95;70.51;97465.25;5182336;28;20653;-59
2022/06/19 00:07:07;;;;;;;9.27;6.40;;;20.10;99.90;;;20.89;69.79;97454.78;5181928;28;20221;-58
2022/06/19 00:09:40;;;;;;;9.50;5.55;;;20.00;99.90;;;20.87;70.47;97461.69;5182100;28;20276;-59
2022/06/19 00:12:15;;;;;;;9.25;5.70;;;20.00;99.90;;;20.90;70.63;97456.53;5182645;28;20295;-59
2022/06/19 00:14:48;;;;;;;9.90;6.30;;;20.10;99.90;;;20.91;70.92;97455.66;5181308;28;20226;-59
2022/06/19 00:17:21;;;;;;;9.82;6.82;;;20.00;99.90;;;20.82;71.53;97459.03;5171902;28;20241;-59
2022/06/19 00:19:56;;;;;;;12.13;6.82;;;20.00;99.90;;;20.82;71.64;97459.03;5176323;28;20200;-58
2022/06/19 00:22:29;;;;;;;11.40;7.63;;;20.00;99.90;;;20.89;71.91;97454.78;5173328;28;20725;-59
2022/06/19 00:25:03;;;;;;;10.75;6.25;;;20.00;99.90;;;20.87;71.91;97454.75;5178658;28;20309;-59
2022/06/19 00:27:37;;;;;;;9.00;6.45;;;20.00;99.90;;;20.86;71.64;97450.44;5181123;28;20195;-59
2022/06/19 00:30:13;;;;;;;10.32;6.72;;;20.00;99.90;;;20.73;71.25;97447.69;5182041;28;20226;-58
2022/06/19 00:32:46;;;;;;;10.80;6.82;;;19.90;99.90;;;20.70;71.45;97432.94;5177078;28;20216;-58
2022/06/19 00:35:21;;;;;;;9.35;6.80;;;19.90;99.90;;;20.68;71.86;97435.50;5169791;28;20242;-57
2022/06/19 00:37:54;;;;;;;10.98;6.63;;;19.80;99.90;;;20.53;72.29;97430.16;5184442;28;20914;-57
2022/06/19 00:40:31;;;;;;;8.90;7.00;;;19.70;99.90;;;20.49;73.02;97423.19;5179982;28;20199;-58
2022/06/19 00:43:05;;;;;;;8.98;6.22;;;19.70;99.90;;;20.50;72.90;97418.84;5175748;28;20606;-58
2022/06/19 00:45:42;;;;;;;9.43;6.30;;;19.60;99.90;;;20.50;73.20;97417.13;5173669;28;20249;-59
2022/06/19 00:48:19;;;;;;;8.48;6.22;;;19.70;99.90;;;20.53;73.19;97422.38;5167949;28;20260;-59
2022/06/19 00:50:55;;;;;;;9.57;6.65;;;19.70;99.90;;;20.37;71.63;97410.03;5166908;28;20691;-58
2022/06/19 00:53:34;;;;;;;6.35;5.28;;;19.60;99.90;;;20.40;71.66;97410.97;5172025;28;20249;-57
2022/06/19 00:56:12;;;;;;;8.30;4.90;;;19.50;99.90;;;20.34;70.03;97405.69;5169778;28;20262;-59
2022/06/19 00:58:48;;;;;;;7.88;4.72;;;19.50;99.90;;;20.47;69.05;97393.72;5167774;28;20234;-57
2022/06/19 01:01:25;;;;;;;7.30;5.30;;;19.60;99.90;;;20.47;68.42;97401.50;5171090;28;20326;-58
2022/06/19 01:04:04;;;;;;;7.47;5.38;;;19.70;99.90;;;20.56;69.00;97388.66;5170854;28;20202;-57
2022/06/19 01:06:39;;;;;;;9.55;6.00;;;19.80;99.90;;;20.64;69.40;97392.19;5171829;28;20280;-58
2022/06/19 01:09:12;;;;;;;10.88;5.65;;;19.80;99.90;;;20.50;69.77;97383.38;5171405;28;20206;-58
2022/06/19 01:11:46;;;;;;;9.30;5.30;;;19.70;99.90;;;20.51;70.58;97395.47;5184541;28;20199;-58
2022/06/19 01:14:24;;;;;;;9.70;5.88;;;19.60;99.90;;;20.43;70.22;97381.53;5171690;28;20245;-57
2022/06/19 01:16:57;;;;;;;7.70;5.80;;;19.60;99.90;;;20.44;71.10;97391.97;5175120;28;20647;-58
2022/06/19 01:19:36;;;;;;;8.02;5.53;;;19.60;99.90;;;20.32;70.87;97381.44;5170126;28;20231;-58
2022/06/19 01:22:23;;;;;;;9.13;5.35;;;19.60;99.90;;;20.40;71.51;97384.09;5179282;28;20257;-57
2022/06/19 01:25:08;;;;;;;8.48;6.05;;;19.60;99.90;;;20.35;71.55;97378.88;5173922;28;20217;-56
2022/06/19 01:30:36;;;;;;;8.68;6.32;;;19.50;99.90;;;20.28;71.83;97381.41;5167456;28;20203;-58
2022/06/19 01:33:14;;;;;;;6.50;5.60;;;19.50;99.90;;;20.29;72.24;97384.03;5169657;28;20637;-58
2022/06/19 01:35:50;;;;;;;7.97;5.13;;;19.50;99.90;;;20.34;71.92;97376.25;5171903;28;20254;-59
2022/06/19 01:38:26;;;;;;;8.23;6.18;;;19.50;99.90;;;20.36;72.13;97370.22;5167891;28;20206;-58
2022/06/19 01:41:07;;;;;;;10.38;6.07;;;19.60;99.90;;;20.27;72.00;97361.50;5172464;28;20734;-59
2022/06/19 01:43:40;;;;;;;8.35;5.45;;;19.40;99.90;;;20.22;71.60;97362.28;5166622;28;20265;-59
2022/06/19 01:46:15;;;;;;;8.68;5.20;;;19.40;99.90;;;20.07;70.91;97356.06;5168605;28;20230;-57
2022/06/19 01:48:48;;;;;;;8.43;5.38;;;19.30;99.90;;;20.01;69.75;97356.88;5166631;28;20206;-57
2022/06/19 01:51:21;;;;;;;7.93;4.72;;;19.30;99.90;;;20.01;68.95;97351.69;5167219;28;20243;-59
2022/06/19 01:54:00;;;;;;;5.38;4.78;;;19.20;99.90;;;20.07;68.62;97343.97;5169978;28;20277;-58
2022/06/19 01:56:35;;;;;;;8.13;4.45;;;19.30;99.90;;;20.14;68.15;97348.34;5173964;28;20230;-57
2022/06/19 01:59:11;;;;;;;7.57;4.40;;;19.40;99.90;;;20.18;67.38;97338.91;5172802;28;20257;-59
2022/06/19 02:01:46;;;;;;;7.43;4.50;;;19.40;99.90;;;20.25;68.14;97338.97;5170477;28;20568;-58
2022/06/19 02:04:20;;;;;;;8.00;4.25;;;19.50;99.90;;;20.33;66.76;97341.66;5172001;28;20261;-58
2022/06/19 02:06:59;;;;;;;9.77;4.70;;;19.50;99.90;;;20.34;66.81;97345.13;5174078;28;20742;-54
2022/06/19 02:09:32;;;;;;;8.48;5.18;;;19.50;99.90;;;20.34;67.09;97343.38;5165939;28;20675;-59
2022/06/19 02:12:08;;;;;;;7.50;4.85;;;19.60;99.90;;;20.31;68.06;97348.53;5167802;28;20198;-59
2022/06/19 02:14:42;;;;;;;8.55;4.20;;;19.50;99.90;;;20.21;67.53;97345.00;5169630;28;20195;-58
2022/06/19 02:17:23;;;;;;;6.97;4.45;;;19.40;99.90;;;20.25;68.91;97346.75;5170606;28;20812;-58
2022/06/19 02:19:57;;;;;;;8.27;5.13;;;19.50;99.90;;;20.29;69.67;97351.97;5176362;28;20214;-59
2022/06/19 02:22:30;;;;;;;6.88;4.40;;;19.50;99.90;;;20.20;69.29;97345.84;5168859;28;20203;-57
2022/06/19 02:25:04;;;;;;;6.03;4.63;;;19.40;99.90;;;20.25;69.61;97346.75;5170763;28;20730;-55
2022/06/19 02:27:40;;;;;;;5.30;4.50;;;19.40;99.90;;;20.25;69.86;97343.28;5175158;28;20632;-59
2022/06/19 02:30:15;;;;;;;8.57;4.40;;;19.40;99.90;;;20.21;71.00;97336.34;5175909;28;20203;-58
2022/06/19 02:32:51;;;;;;;7.28;4.35;;;19.40;99.90;;;20.10;69.87;97333.63;5177520;28;20209;-58
2022/06/19 02:35:26;;;;;;;7.50;4.40;;;19.30;99.90;;;20.19;69.94;97336.31;5177339;28;20252;-57
2022/06/19 02:37:59;;;;;;;6.90;4.18;;;19.40;99.90;;;20.18;69.51;97333.72;5178531;28;20237;-59
2022/06/19 02:40:41;;;;;;;7.63;4.80;;;19.30;99.90;;;20.15;69.94;97333.69;5173096;28;20261;-59
2022/06/19 02:43:21;;;;;;;8.57;5.10;;;19.30;99.90;;;20.10;70.11;97331.03;5172576;28;20617;-58
2022/06/19 02:45:55;;;;;;;7.07;4.50;;;19.30;99.90;;;20.09;70.63;97337.09;5176133;28;20222;-58
2022/06/19 02:48:31;;;;;;;9.13;4.95;;;19.20;99.90;;;20.03;71.81;97330.09;5172428;28;20203;-59
2022/06/19 02:51:06;;;;;;;6.35;4.38;;;19.20;99.90;;;19.98;72.00;97336.09;5174337;28;20234;-58
2022/06/19 02:53:39;;;;;;;4.95;4.25;;;19.20;99.90;;;19.97;71.74;97334.31;5173308;28;20272;-59
2022/06/19 02:56:12;;;;;;;8.63;4.75;;;19.20;99.90;;;19.97;72.45;97335.22;5172875;28;20226;-57
2022/06/19 02:58:46;;;;;;;7.38;4.60;;;19.20;99.90;;;19.99;71.84;97348.19;5172691;28;20297;-58
2022/06/19 03:01:19;;;;;;;6.30;4.57;;;19.20;99.90;;;19.97;71.75;97345.59;5176221;28;20230;-59
2022/06/19 03:03:53;;;;;;;9.07;4.15;;;19.20;99.90;;;19.95;70.67;97351.63;5178532;28;20258;-59
2022/06/19 03:06:26;;;;;;;9.23;4.70;;;19.10;99.90;;;19.89;70.17;97355.00;5179225;28;20238;-57
2022/06/19 03:08:59;;;;;;;9.18;4.70;;;19.00;99.90;;;19.78;70.43;97348.81;5178361;28;20199;-59
2022/06/19 03:11:32;;;;;;;8.30;4.70;;;18.90;99.90;;;19.79;71.27;97350.56;5166761;28;20587;-59
2022/06/19 03:14:07;;;;;;;5.70;4.25;;;18.90;99.90;;;19.73;70.61;97361.72;5175479;28;20739;-59
2022/06/19 03:16:40;;;;;;;8.07;5.00;;;18.90;99.90;;;19.72;71.17;97356.53;5171378;28;20268;-58
2022/06/19 03:19:13;;;;;;;7.35;4.75;;;18.90;99.90;;;19.71;71.18;97362.53;5173638;28;20584;-59
2022/06/19 03:21:49;;;;;;;5.85;4.18;;;18.90;99.90;;;19.72;70.52;97359.97;5173603;28;20241;-59
2022/06/19 03:24:23;;;;;;;7.32;4.28;;;18.90;99.90;;;19.73;70.91;97351.34;5175369;28;20588;-59
2022/06/19 03:26:56;;;;;;;5.95;4.53;;;19.00;99.90;;;19.76;70.82;97353.97;5174630;28;20749;-59
2022/06/19 03:29:30;;;;;;;10.50;4.30;;;19.00;99.90;;;19.80;70.29;97355.78;5172813;28;20199;-60
2022/06/19 03:32:04;;;;;;;6.30;4.22;;;19.00;99.90;;;19.75;70.87;97348.78;5173615;28;20264;-58
2022/06/19 03:34:38;;;;;;;8.88;4.28;;;19.00;99.90;;;19.75;70.87;97348.78;5171248;28;20199;-58
2022/06/19 03:37:13;;;;;;;8.13;4.10;;;19.00;99.90;;;19.77;71.54;97347.06;5173037;28;20215;-58
2022/06/19 03:39:47;;;;;;;7.30;4.15;;;19.00;99.90;;;19.74;71.12;97347.91;5174707;28;20226;-59
2022/06/19 03:42:20;;;;;;;6.20;4.00;;;19.00;99.90;;;19.75;70.71;97344.47;5174500;28;20681;-58
2022/06/19 03:44:54;;;;;;;6.55;4.10;;;19.00;99.90;;;19.78;69.90;97339.31;5174853;28;20202;-58
2022/06/19 03:47:30;;;;;;;6.85;4.50;;;19.00;99.90;;;19.81;70.49;97338.47;5171212;28;20222;-59
2022/06/19 03:50:05;;;;;;;8.48;4.72;;;19.00;99.90;;;19.83;70.25;97344.56;5177425;28;20198;-58
2022/06/19 03:52:38;;;;;;;6.03;3.75;;;19.00;99.90;;;19.84;69.82;97342.84;5172997;28;20665;-57
2022/06/19 03:55:12;;;;;;;6.03;3.90;;;19.00;99.90;;;19.86;69.02;97330.75;5175237;28;20265;-58
2022/06/19 03:57:45;;;;;;;11.05;4.32;;;18.90;99.90;;;19.73;69.39;97335.78;5173023;28;20242;-57
2022/06/19 04:00:21;;;;;;;6.32;3.78;;;18.90;99.90;;;19.77;69.68;97331.50;5175455;28;20227;-58
2022/06/19 04:02:54;;;;;;;7.07;3.78;;;18.90;99.90;;;19.81;69.72;97333.28;5176484;28;20652;-58
2022/06/19 04:05:27;;;;;;;5.82;3.92;;;18.90;99.90;;;19.82;70.38;97329.84;5168682;28;20329;-58
2022/06/19 04:08:00;;;;;;;8.35;4.22;;;19.00;99.90;;;19.88;71.02;97326.44;5178065;28;20230;-58
2022/06/19 04:10:34;;;;;;;6.82;4.28;;;19.00;99.90;;;19.88;70.96;97327.31;5175536;28;20242;-58
2022/06/19 04:13:07;;;;;;;8.38;4.10;;;19.00;99.90;;;19.94;69.93;97326.50;5178871;28;20257;-59
2022/06/19 04:15:42;;;;;;;7.72;4.25;;;19.10;99.90;;;19.99;68.99;97330.03;5180337;28;20222;-58
2022/06/19 04:18:15;;;;;;;8.13;4.20;;;19.20;99.90;;;20.03;69.58;97332.69;5177684;28;20191;-59
2022/06/19 04:20:48;;;;;;;9.55;4.35;;;19.20;99.90;;;20.08;68.85;97329.28;5178382;28;20199;-57
2022/06/19 04:23:21;;;;;;;7.80;4.10;;;19.30;99.90;;;20.15;68.73;97336.28;5173410;28;20250;-58
2022/06/19 04:25:55;;;;;;;9.88;4.50;;;19.40;99.90;;;20.24;68.43;97344.16;5177337;28;20218;-57
2022/06/19 04:28:29;;;;;;;5.47;3.97;;;19.40;99.90;;;20.36;67.92;97328.69;5176633;28;20218;-57
2022/06/19 04:31:03;;;;;;;7.60;4.50;;;19.40;99.90;;;20.40;68.67;97334.78;5180413;28;20194;-58
2022/06/19 04:33:38;;;;;;;6.65;4.43;;;19.40;99.90;;;20.40;68.33;97329.59;5179963;28;20206;-57
2022/06/19 04:36:15;;;;;;;7.30;4.22;;;19.50;99.90;;;20.47;67.83;97324.47;5177746;28;20221;-58
2022/06/19 04:38:50;;;;;;;6.13;3.95;;;19.50;99.90;;;20.53;67.67;97331.50;5178933;28;20195;-58
2022/06/19 04:41:28;;;;;;;6.70;4.00;;;19.60;99.90;;;20.58;67.37;97337.59;5176665;28;20197;-57
2022/06/19 04:44:01;;;;;;;6.63;4.10;;;19.60;99.90;;;20.70;67.95;97326.44;5178305;28;20214;-58
2022/06/19 04:46:36;;;;;;;6.43;4.03;;;19.80;99.90;;;21.09;67.13;97323.28;5171902;28;20231;-58
2022/06/19 04:49:11;;;;;;;10.25;4.60;;;20.30;99.90;;;21.64;65.80;97334.91;5174013;28;20214;-59
2022/06/19 04:51:44;;;;;;;7.07;3.85;;;20.80;99.90;;;22.19;63.19;97332.53;5178351;28;20211;-57
2022/06/19 04:54:18;;;;;;;7.82;3.88;;;21.30;99.90;;;22.70;60.97;97336.09;5176849;28;20211;-58
2022/06/19 04:56:51;;;;;;;7.18;4.10;;;21.80;99.50;;;23.14;59.51;97322.22;5180834;28;20234;-59
2022/06/19 04:59:24;;;;;;;7.70;4.25;;;22.10;98.60;;;23.50;58.01;97330.84;5176973;28;20208;-57
2022/06/19 05:01:58;;;;;;;9.40;4.07;;;22.40;97.80;;;23.86;57.26;97329.84;5185016;28;20206;-58
2022/06/19 05:04:31;;;;;;;8.13;4.13;;;22.70;97.60;;;24.21;55.81;97332.31;5173740;28;20206;-58
2022/06/19 05:07:05;;;;;;;7.97;3.90;;;23.00;97.00;;;24.47;55.36;97334.81;5183103;28;20258;-54
2022/06/19 05:09:38;;;;;;;6.28;3.85;;;23.20;96.60;;;24.78;54.69;97342.44;5175219;28;20234;-52
2022/06/19 05:12:11;;;;;;;8.35;3.72;;;23.50;96.20;;;25.00;53.53;97327.41;5174516;28;20629;-59
2022/06/19 05:14:44;;;;;;;9.23;4.00;;;23.60;95.50;;;25.19;53.86;97340.38;5174230;28;20203;-59
2022/06/19 05:17:19;;;;;;;8.32;3.83;;;23.70;96.00;;;25.38;53.58;97328.81;5175720;28;20643;-59
2022/06/19 05:19:53;;;;;;;5.90;3.78;;;23.90;95.90;;;25.50;52.94;97327.84;5173662;28;20640;-57
2022/06/19 05:22:26;;;;;;;9.88;3.67;;;24.00;95.40;;;25.83;51.20;97334.47;5173463;28;20284;-58
2022/06/19 05:24:59;;;;;;;7.63;4.22;;;24.20;94.60;;;25.97;50.33;97334.31;5176797;28;20231;-56
2022/06/19 05:27:32;;;;;;;7.95;3.92;;;24.40;93.50;;;26.24;49.42;97330.44;5169559;28;20226;-59
2022/06/19 05:30:09;;;;;;;6.22;4.20;;;24.70;93.30;;;26.51;49.26;97330.09;5172987;28;20302;-57
2022/06/19 05:32:43;;;;;;;6.57;4.28;;;24.90;93.00;;;26.75;49.61;97333.22;5174511;28;20733;-57
2022/06/19 05:35:17;;;;;;;8.02;4.47;;;25.10;92.90;;;26.96;47.67;97327.63;5177013;28;20225;-57
2022/06/19 05:37:50;;;;;;;7.25;4.03;;;25.40;92.10;;;27.00;48.39;97338.09;5176461;28;20198;-56
2022/06/19 05:40:23;;;;;;;5.70;3.70;;;25.40;92.70;;;27.19;48.67;97339.53;5175882;28;20202;-60
2022/06/19 05:42:57;;;;;;;8.95;3.85;;;25.50;92.70;;;27.38;48.43;97335.66;5174638;28;20246;-60
2022/06/19 05:45:30;;;;;;;7.93;3.83;;;25.60;92.70;;;27.57;48.14;97335.34;5173855;28;20246;-59
2022/06/19 05:48:05;;;;;;;7.40;4.53;;;25.70;92.50;;;27.82;47.33;97328.75;5176899;28;20309;-61
2022/06/19 05:50:39;;;;;;;5.97;3.88;;;25.90;92.10;;;27.83;46.87;97338.34;5172923;28;20702;-60
2022/06/19 05:53:12;;;;;;;8.15;3.97;;;26.00;91.80;;;28.02;46.20;97348.50;5175128;28;20256;-61
2022/06/19 05:55:45;;;;;;;8.20;4.63;;;26.00;91.30;;;28.25;44.93;97330.47;5172405;28;20325;-57
2022/06/19 05:58:18;;;;;;;8.95;3.97;;;26.20;90.90;;;28.56;44.82;97326.28;5173642;28;20244;-60
2022/06/19 06:00:52;;;;;;;8.23;4.13;;;26.50;90.70;;;28.73;44.54;97327.66;5179370;28;20226;-58
2022/06/19 06:03:27;;;;;;;5.53;3.75;;;26.60;90.50;;;28.41;45.83;97327.47;5180823;28;20198;-59
2022/06/19 06:06:01;;;;;;;8.65;4.15;;;26.60;90.70;;;28.92;44.49;97321.91;5181004;28;20226;-59
2022/06/19 06:08:36;;;;;;;7.85;4.10;;;26.90;90.10;;;29.40;42.49;97324.22;5179566;28;20251;-59
2022/06/19 06:11:12;;;;;;;8.90;4.25;;;27.20;88.80;;;29.66;41.88;97330.59;5176235;28;20202;-60
2022/06/19 06:13:46;;;;;;;8.65;4.22;;;27.50;88.00;;;29.99;40.97;97332.28;5179782;28;20213;-59
2022/06/19 06:16:21;;;;;;;8.40;3.97;;;27.90;86.00;;;30.23;40.97;97332.50;5176310;28;20257;-60
2022/06/19 06:18:56;;;;;;;10.30;4.20;;;27.90;86.60;;;30.49;39.72;97329.91;5180672;28;20244;-59
2022/06/19 06:21:29;;;;;;;11.68;4.50;;;28.10;85.20;;;30.60;39.74;97326.09;5179017;28;20252;-59
2022/06/19 06:24:02;;;;;;;7.72;3.90;;;28.00;85.30;;;30.58;40.47;97323.47;5178014;28;20268;-59
2022/06/19 06:26:35;;;;;;;8.80;4.30;;;28.20;85.90;;;31.10;39.83;97323.59;5179088;28;20530;-59
2022/06/19 06:29:08;;;;;;;9.07;3.95;;;28.60;85.80;;;31.44;39.95;97325.97;5180448;28;20226;-61
2022/06/19 06:31:42;;;;;;;8.50;4.25;;;28.90;85.70;;;31.62;40.09;97319.16;5179087;28;20198;-60
2022/06/19 06:34:16;;;;;;;8.57;3.88;;;29.10;86.30;;;32.02;40.17;97323.00;5179467;28;20256;-61
2022/06/19 06:36:49;;;;;;;9.52;3.80;;;29.30;86.10;;;32.25;38.67;97320.38;5177570;28;20229;-58
2022/06/19 06:39:23;;;;;;;7.93;4.30;;;29.60;84.10;;;32.38;38.08;97326.03;5179772;28;20656;-59
2022/06/19 06:41:56;;;;;;;5.32;3.92;;;29.90;83.00;;;32.62;37.98;97326.88;5178853;28;20638;-60
2022/06/19 06:44:29;;;;;;;10.60;4.00;;;30.20;82.30;;;33.04;37.44;97326.09;5178813;28;20198;-60
2022/06/19 06:47:02;;;;;;;7.78;4.00;;;30.40;81.60;;;33.67;36.18;97330.50;5178442;28;20226;-60
2022/06/19 06:49:37;;;;;;;8.90;4.22;;;31.00;80.60;;;33.95;35.39;97328.34;5171015;28;20273;-58
2022/06/19 06:52:11;;;;;;;8.30;4.03;;;31.10;79.80;;;34.12;35.13;97321.44;5180236;28;20205;-62
2022/06/19 06:54:45;;;;;;;7.50;4.13;;;31.30;79.60;;;34.37;34.97;97322.00;5178251;28;20617;-61
2022/06/19 06:57:18;;;;;;;9.98;4.15;;;31.70;77.90;;;34.33;33.93;97314.25;5178680;28;20209;-58
2022/06/19 06:59:51;;;;;;;8.82;3.83;;;31.70;76.90;;;34.53;34.14;97317.69;5180289;28;20505;-61
2022/06/19 07:02:24;;;;;;;8.15;4.07;;;31.90;77.60;;;34.62;34.37;97318.19;5178155;28;20198;-61
2022/06/19 07:04:59;;;;;;;10.30;3.95;;;32.10;76.90;;;34.79;33.43;97312.06;5178103;28;20256;-61
2022/06/19 07:07:32;;;;;;;7.10;4.28;;;32.30;76.10;;;35.09;33.85;97315.03;5178405;28;20238;-58
2022/06/19 07:10:07;;;;;;;9.70;4.05;;;32.40;76.30;;;35.31;33.54;97312.97;5179446;28;20697;-61
2022/06/19 07:12:40;;;;;;;9.80;4.05;;;32.90;75.30;;;35.45;33.47;97317.59;5180688;28;20233;-61
2022/06/19 07:15:14;;;;;;;8.07;4.22;;;33.10;75.30;;;36.01;31.83;97326.22;5180455;28;20664;-61
2022/06/19 07:17:47;;;;;;;6.65;3.65;;;33.40;72.70;;;36.35;31.78;97325.25;5179746;28;20671;-60
2022/06/19 07:20:21;;;;;;;7.40;4.10;;;33.80;73.40;;;36.40;31.91;97314.34;5178600;28;20229;-63
2022/06/19 07:22:55;;;;;;;12.23;4.18;;;33.90;73.50;;;36.45;31.40;97317.59;5180213;28;20578;-62
2022/06/19 07:25:28;;;;;;;8.45;4.07;;;33.70;72.70;;;36.34;32.28;97320.84;5179840;28;20218;-59
2022/06/19 07:28:01;;;;;;;10.07;4.63;;;33.70;73.90;;;36.58;32.39;97321.34;5177711;28;20260;-60
2022/06/19 07:30:34;;;;;;;9.90;3.75;;;33.90;73.30;;;36.72;31.60;97318.75;5177104;28;20620;-62
2022/06/19 07:33:07;;;;;;;10.80;4.50;;;34.10;71.20;;;36.88;31.71;97307.19;5179460;28;20207;-61
2022/06/19 07:35:42;;;;;;;7.93;3.95;;;34.40;72.10;;;36.99;31.30;97310.09;5178547;28;20272;-62
2022/06/19 07:38:16;;;;;;;7.15;3.53;;;34.40;72.70;;;37.34;31.26;97308.03;5180281;28;20233;-61
2022/06/19 07:40:49;;;;;;;10.88;4.30;;;34.70;71.90;;;37.60;29.83;97311.84;5180192;28;20653;-60
2022/06/19 07:43:23;;;;;;;9.95;3.92;;;35.10;70.40;;;37.74;30.33;97305.63;5184108;28;20607;-60
2022/06/19 07:45:56;;;;;;;11.60;4.10;;;35.00;69.30;;;38.06;29.69;97311.69;5200092;28;20699;-63
2022/06/19 07:51:26;;;;;;;10.52;4.20;;;35.50;68.20;;;38.34;28.52;97301.91;5202083;28;20221;-60
2022/06/19 07:54:05;;;;;;;11.95;4.05;;;35.60;66.20;;;38.30;26.20;97300.41;5199933;28;20200;-61
2022/06/19 07:56:38;;;;;;;12.10;4.80;;;35.30;63.10;;;38.32;26.45;97301.16;5204025;28;20662;-58
2022/06/19 07:59:11;;;;;;;9.82;4.00;;;35.30;63.40;;;38.58;26.78;97301.31;5205090;28;20201;-61
2022/06/19 08:01:45;;;;;;;8.63;3.95;;;35.50;63.60;;;38.53;25.88;97296.28;5198504;28;20209;-59
2022/06/19 08:04:38;;;;;;;10.57;4.05;;;35.70;62.60;;;38.64;26.60;97303.59;5204524;28;20292;-61
2022/06/19 08:07:16;;;;;;;9.40;3.85;;;35.70;63.80;;;38.88;26.13;97299.31;5201033;28;20248;-61
2022/06/19 08:09:50;;;;;;;10.73;4.60;;;35.90;63.60;;;39.21;26.04;97298.03;5201881;28;20247;-61
2022/06/19 08:12:23;;;;;;;12.77;4.90;;;36.00;63.00;;;39.42;25.32;97298.41;5203592;28;20275;-59
2022/06/19 08:14:56;;;;;;;9.55;4.47;;;36.30;61.50;;;39.53;25.47;97297.66;5202913;28;20768;-62
2022/06/19 08:17:29;;;;;;;10.35;6.68;;;36.50;62.00;;;39.73;24.89;97299.78;5203177;28;20709;-61
2022/06/19 08:20:02;;;;;;;9.27;5.00;;;36.40;61.70;;;39.49;25.70;97293.47;5203012;28;20194;-61
2022/06/19 08:22:38;;;;;;;9.98;5.28;;;36.40;62.30;;;39.23;26.56;97296.09;5202369;28;20675;-62
2022/06/19 08:25:13;;;;;;;11.27;4.90;;;36.50;63.30;;;39.58;25.88;97295.53;5201721;28;20217;-61
2022/06/19 08:27:49;;;;;;;10.40;5.45;;;36.80;61.30;;;39.27;26.49;97308.31;5198901;28;20232;-62
2022/06/19 08:30:25;;;;;;;10.98;5.50;;;36.70;62.50;;;38.75;27.47;97283.22;5200663;28;20225;-61
2022/06/19 08:33:01;;;;;;;10.05;5.75;;;35.90;64.60;;;38.32;27.74;97293.16;5203989;28;20320;-61
2022/06/19 08:35:40;;;;;;;11.30;6.93;;;35.60;65.00;;;38.02;27.55;97298.63;5202055;28;20646;-59
2022/06/19 08:38:21;;;;;;;9.57;6.47;;;35.40;63.60;;;37.73;27.60;97293.25;5202418;28;20201;-61
2022/06/19 08:41:28;;;;;;;9.63;6.90;;;35.20;63.20;;;37.29;27.76;97291.47;5199425;28;20205;-61
2022/06/19 08:44:36;;;;;;;11.77;7.47;;;35.00;63.80;;;37.33;28.86;97302.81;5201014;28;20278;-61
2022/06/19 08:47:30;;;;;;;9.75;7.03;;;35.20;64.80;;;37.11;28.72;97298.72;5200708;28;20314;-59
2022/06/19 08:50:17;;;;;;;12.52;7.47;;;34.70;65.30;;;36.73;29.16;97288.47;5200927;28;20312;-61
2022/06/19 08:53:08;;;;;;;8.77;7.03;;;34.30;65.80;;;36.72;29.38;97288.59;5200708;28;20193;-60
2022/06/19 08:55:51;;;;;;;10.25;7.35;;;34.50;65.40;;;36.80;29.31;97294.34;5202510;28;20320;-60
2022/06/19 08:58:34;;;;;;;11.32;7.85;;;34.70;64.10;;;36.97;29.40;97291.53;5200944;28;20205;-59
2022/06/19 09:01:16;;;;;;;10.50;8.23;;;35.10;63.80;;;36.97;29.42;97290.66;5201066;28;20648;-61
2022/06/19 09:07:08;;;;;;;12.45;8.43;;;35.50;62.90;;;37.23;29.28;97290.97;5198359;28;20229;-61
2022/06/19 09:09:59;;;;;;;11.93;9.15;;;35.70;63.50;;;37.30;28.01;97287.00;5200840;28;20300;-61
2022/06/19 09:12:51;;;;;;;13.05;8.85;;;35.90;61.30;;;37.39;28.96;97289.09;5196624;28;20251;-61
2022/06/19 09:15:34;;;;;;;11.85;8.73;;;36.00;62.00;;;37.50;28.25;97284.00;5201319;28;20300;-60
2022/06/19 09:18:18;;;;;;;9.43;8.38;;;36.10;62.30;;;37.44;28.84;97279.00;5202407;28;20209;-59
2022/06/19 09:21:01;;;;;;;9.40;8.40;;;35.90;62.70;;;37.53;28.78;97291.81;5200928;28;20276;-60
2022/06/19 09:24:02;;;;;;;11.88;8.63;;;36.20;63.10;;;37.58;29.10;97295.06;5197588;28;20559;-59
2022/06/19 09:26:41;;;;;;;9.10;8.10;;;36.50;62.40;;;37.64;28.69;97289.34;5194773;28;20262;-60
2022/06/19 09:29:20;;;;;;;11.68;8.25;;;36.50;62.30;;;37.63;28.72;97298.31;5199610;28;20229;-62
2022/06/19 09:32:01;;;;;;;9.50;8.07;;;36.30;62.60;;;37.71;27.83;97291.63;5203723;28;20232;-61
2022/06/19 09:34:49;;;;;;;11.50;8.65;;;36.30;61.30;;;37.67;28.51;97295.47;5196897;28;20689;-61
2022/06/19 09:37:30;;;;;;;14.23;8.93;;;36.40;61.50;;;37.53;28.66;97283.81;5197780;28;20228;-59
2022/06/19 09:40:08;;;;;;;13.13;8.82;;;36.20;61.00;;;37.61;27.58;97286.03;5197897;28;20201;-58
2022/06/19 09:42:48;;;;;;;10.50;9.10;;;36.20;60.60;;;37.56;27.90;97275.63;5197119;28;20251;-63
2022/06/19 09:45:27;;;;;;;13.23;8.57;;;36.30;60.30;;;37.53;28.31;97278.47;5201236;28;20650;-60
2022/06/19 09:48:10;;;;;;;13.00;8.60;;;36.30;60.50;;;37.46;29.23;97278.91;5199018;28;20196;-61
2022/06/19 09:50:51;;;;;;;11.32;8.93;;;36.30;61.00;;;37.49;29.13;97271.63;5197253;28;20221;-58
2022/06/19 09:53:35;;;;;;;10.23;8.90;;;36.30;61.30;;;37.46;28.39;97270.91;5199151;28;20201;-61
2022/06/19 09:56:38;;;;;;;12.02;9.23;;;36.30;60.20;;;37.56;27.78;97272.94;5197799;28;20229;-61
2022/06/19 09:59:16;;;;;;;13.43;9.23;;;36.30;60.40;;;37.71;28.15;97272.94;5200444;28;20225;-61
2022/06/19 10:01:57;;;;;;;11.32;9.75;;;36.50;60.00;;;37.60;28.01;97271.84;5199999;28;20206;-62
2022/06/19 10:04:39;;;;;;;11.43;9.30;;;36.50;60.50;;;37.74;28.21;97262.94;5202970;28;20651;-60
2022/06/19 10:07:25;;;;;;;13.40;10.00;;;36.60;60.40;;;37.61;27.57;97265.53;5199948;28;20702;-61
2022/06/19 10:10:03;;;;;;;11.57;10.45;;;36.50;60.00;;;37.50;28.39;97257.31;5202654;28;20737;-61
2022/06/19 10:12:42;;;;;;;11.77;9.32;;;36.20;59.60;;;37.50;27.61;97257.31;5201454;28;20209;-59
2022/06/19 10:15:19;;;;;;;12.82;9.77;;;36.20;59.50;;;37.50;27.70;97248.47;5203920;28;20667;-59
2022/06/19 10:17:59;;;;;;;12.63;9.90;;;36.20;60.40;;;37.53;27.76;97250.94;5203230;28;20202;-61
2022/06/19 10:20:49;;;;;;;13.10;10.18;;;36.30;60.10;;;37.45;28.40;97243.38;5199318;28;20217;-61
2022/06/19 10:23:40;;;;;;;12.77;10.32;;;36.30;59.90;;;37.41;28.20;97239.19;5203328;28;20240;-59
2022/06/19 10:26:29;;;;;;;12.65;10.77;;;36.30;60.00;;;37.37;28.32;97238.53;5197941;28;20280;-60
2022/06/19 10:29:23;;;;;;;11.82;10.60;;;36.40;60.10;;;37.39;29.25;97235.75;5199015;28;20621;-61
2022/06/19 10:32:20;;;;;;;13.02;10.50;;;36.40;61.70;;;37.46;28.25;97231.78;5201997;28;20229;-61
2022/06/19 10:35:12;;;;;;;12.43;10.20;;;36.30;60.20;;;37.57;28.55;97237.31;5203604;28;20224;-59
2022/06/19 10:38:06;;;;;;;12.55;10.80;;;36.50;60.60;;;37.59;28.75;97229.22;5198315;28;20198;-58
2022/06/19 10:40:47;;;;;;;10.75;9.70;;;36.50;60.60;;;37.40;28.67;97229.47;5200963;28;20197;-58
2022/06/19 10:43:38;;;;;;;11.43;10.20;;;36.20;61.40;;;37.37;27.79;97229.66;5200531;28;20209;-58
2022/06/19 10:46:15;;;;;;;11.50;10.30;;;36.30;59.70;;;37.35;27.82;97232.44;5197467;28;20274;-62
2022/06/19 10:49:00;;;;;;;14.30;11.52;;;36.30;59.30;;;37.21;28.60;97229.75;5200509;28;20200;-60
2022/06/19 10:51:52;;;;;;;15.10;10.10;;;36.30;59.40;;;37.13;27.47;97227.53;5203719;28;20587;-59
2022/06/19 10:54:45;;;;;;;15.48;10.73;;;36.10;58.10;;;37.15;25.10;97228.31;5202790;28;20205;-58
2022/06/19 10:57:33;;;;;;;11.48;10.05;;;36.00;55.70;;;37.12;25.82;97224.97;5197202;28;20264;-58
2022/06/19 11:00:08;;;;;;;12.57;10.18;;;36.00;56.30;;;37.20;24.71;97218.22;5201381;28;20633;-58
2022/06/19 11:05:49;;;;;;;12.32;10.40;;;36.10;55.00;;;37.05;25.18;97211.13;5200142;28;20221;-61
2022/06/19 11:08:28;;;;;;;13.00;10.38;;;36.10;55.40;;;36.95;25.36;97208.16;5202924;28;20212;-62
2022/06/19 11:11:03;;;;;;;13.50;10.65;;;35.90;54.90;;;37.08;25.23;97205.63;5201855;28;20279;-61